sensor_id;sensor_type;location;lat;lon;timestamp;P1;durP1;ratioP1;P2;durP2;ratioP2
5678;SDS011;2862;52.560;13.566;2024-01-06T00:07:20;76.20;;;26.80;;
5678;SDS011;2862;52.560;13.566;2024-01-06T00:17:24;81.73;;;29.43;;
5678;SDS011;2862;52.560;13.566;2024-01-06T00:27:27;79.93;;;27.27;;
5678;SDS011;2862;52.560;13.566;2024-01-06T00:37:31;72.10;;;29.47;;
5678;SDS011;2862;52.560;13.566;2024-01-06T00:47:34;75.63;;;28.10;;
5678;SDS011;2862;52.560;13.566;2024-01-06T00:57:39;79.13;;;27.83;;
5678;SDS011;2862;52.560;13.566;2024-01-06T01:07:42;67.03;;;26.70;;
5678;SDS011;2862;52.560;13.566;2024-01-06T01:17:46;91.07;;;27.90;;
5678;SDS011;2862;52.560;13.566;2024-01-06T01:27:49;61.90;;;23.00;;
5678;SDS011;2862;52.560;13.566;2024-01-06T01:37:54;74.80;;;25.57;;
5678;SDS011;2862;52.560;13.566;2024-01-06T01:47:56;71.80;;;25.87;;
5678;SDS011;2862;52.560;13.566;2024-01-06T01:58:01;69.47;;;26.23;;
5678;SDS011;2862;52.560;13.566;2024-01-06T02:08:04;81.23;;;27.53;;
5678;SDS011;2862;52.560;13.566;2024-01-06T02:18:09;67.53;;;24.70;;
5678;SDS011;2862;52.560;13.566;2024-01-06T02:28:13;73.07;;;25.77;;
5678;SDS011;2862;52.560;13.566;2024-01-06T02:38:16;84.30;;;25.87;;
5678;SDS011;2862;52.560;13.566;2024-01-06T02:48:21;77.10;;;27.60;;
5678;SDS011;2862;52.560;13.566;2024-01-06T02:58:24;70.03;;;25.03;;
5678;SDS011;2862;52.560;13.566;2024-01-06T03:08:28;69.57;;;26.17;;
5678;SDS011;2862;52.560;13.566;2024-01-06T03:18:31;69.00;;;26.40;;
5678;SDS011;2862;52.560;13.566;2024-01-06T03:28:36;70.43;;;24.50;;
5678;SDS011;2862;52.560;13.566;2024-01-06T03:38:38;70.70;;;26.10;;
5678;SDS011;2862;52.560;13.566;2024-01-06T03:48:43;71.17;;;24.53;;
5678;SDS011;2862;52.560;13.566;2024-01-06T03:58:46;79.83;;;27.27;;
5678;SDS011;2862;52.560;13.566;2024-01-06T04:08:51;77.10;;;27.37;;
5678;SDS011;2862;52.560;13.566;2024-01-06T04:18:54;68.53;;;25.37;;
5678;SDS011;2862;52.560;13.566;2024-01-06T04:28:59;79.33;;;25.97;;
5678;SDS011;2862;52.560;13.566;2024-01-06T04:39:01;82.03;;;29.27;;
5678;SDS011;2862;52.560;13.566;2024-01-06T04:49:06;85.43;;;27.33;;
5678;SDS011;2862;52.560;13.566;2024-01-06T04:59:08;76.30;;;27.80;;
5678;SDS011;2862;52.560;13.566;2024-01-06T05:09:13;84.53;;;29.20;;
5678;SDS011;2862;52.560;13.566;2024-01-06T05:19:16;86.77;;;27.90;;
5678;SDS011;2862;52.560;13.566;2024-01-06T05:29:23;81.50;;;27.40;;
5678;SDS011;2862;52.560;13.566;2024-01-06T05:39:27;89.47;;;26.97;;
5678;SDS011;2862;52.560;13.566;2024-01-06T05:49:32;84.80;;;28.40;;
5678;SDS011;2862;52.560;13.566;2024-01-06T05:59:35;94.00;;;30.10;;
5678;SDS011;2862;52.560;13.566;2024-01-06T06:09:39;74.67;;;23.00;;
5678;SDS011;2862;52.560;13.566;2024-01-06T06:19:42;83.83;;;28.20;;
5678;SDS011;2862;52.560;13.566;2024-01-06T06:29:46;82.87;;;27.50;;
5678;SDS011;2862;52.560;13.566;2024-01-06T06:39:49;95.53;;;26.93;;
5678;SDS011;2862;52.560;13.566;2024-01-06T06:49:54;80.43;;;25.60;;
5678;SDS011;2862;52.560;13.566;2024-01-06T06:59:56;89.67;;;28.47;;
5678;SDS011;2862;52.560;13.566;2024-01-06T07:10:01;107.77;;;30.87;;
5678;SDS011;2862;52.560;13.566;2024-01-06T07:20:05;125.90;;;34.23;;
5678;SDS011;2862;52.560;13.566;2024-01-06T07:30:11;103.30;;;27.80;;
5678;SDS011;2862;52.560;13.566;2024-01-06T07:40:14;111.30;;;31.27;;
5678;SDS011;2862;52.560;13.566;2024-01-06T07:50:19;106.13;;;29.70;;
5678;SDS011;2862;52.560;13.566;2024-01-06T08:00:22;101.53;;;30.57;;
5678;SDS011;2862;52.560;13.566;2024-01-06T08:10:27;111.43;;;32.50;;
5678;SDS011;2862;52.560;13.566;2024-01-06T08:20:30;101.97;;;30.63;;
5678;SDS011;2862;52.560;13.566;2024-01-06T08:30:34;100.53;;;29.43;;
5678;SDS011;2862;52.560;13.566;2024-01-06T08:40:37;91.43;;;29.47;;
5678;SDS011;2862;52.560;13.566;2024-01-06T08:50:41;83.23;;;27.20;;
5678;SDS011;2862;52.560;13.566;2024-01-06T09:00:45;92.90;;;26.93;;
5678;SDS011;2862;52.560;13.566;2024-01-06T09:10:49;73.53;;;26.50;;
5678;SDS011;2862;52.560;13.566;2024-01-06T09:20:53;77.47;;;27.40;;
5678;SDS011;2862;52.560;13.566;2024-01-06T09:30:57;83.67;;;28.60;;
5678;SDS011;2862;52.560;13.566;2024-01-06T09:40:59;59.77;;;24.90;;
5678;SDS011;2862;52.560;13.566;2024-01-06T09:51:03;79.37;;;26.33;;
5678;SDS011;2862;52.560;13.566;2024-01-06T10:01:08;68.60;;;25.70;;
5678;SDS011;2862;52.560;13.566;2024-01-06T10:11:12;69.97;;;24.67;;
5678;SDS011;2862;52.560;13.566;2024-01-06T10:21:15;61.27;;;23.10;;
5678;SDS011;2862;52.560;13.566;2024-01-06T10:31:20;66.10;;;22.87;;
5678;SDS011;2862;52.560;13.566;2024-01-06T10:41:23;81.43;;;25.57;;
5678;SDS011;2862;52.560;13.566;2024-01-06T10:51:28;68.03;;;23.83;;
5678;SDS011;2862;52.560;13.566;2024-01-06T11:01:32;61.03;;;23.13;;
5678;SDS011;2862;52.560;13.566;2024-01-06T11:11:38;67.53;;;24.40;;
5678;SDS011;2862;52.560;13.566;2024-01-06T11:21:42;60.57;;;22.53;;
5678;SDS011;2862;52.560;13.566;2024-01-06T11:42:31;67.43;;;25.50;;
5678;SDS011;2862;52.560;13.566;2024-01-06T11:52:36;62.33;;;25.10;;
5678;SDS011;2862;52.560;13.566;2024-01-06T12:02:42;68.10;;;24.27;;
5678;SDS011;2862;52.560;13.566;2024-01-06T12:12:55;60.13;;;22.30;;
5678;SDS011;2862;52.560;13.566;2024-01-06T12:23:02;70.37;;;29.33;;
5678;SDS011;2862;52.560;13.566;2024-01-06T12:33:08;55.33;;;22.90;;
5678;SDS011;2862;52.560;13.566;2024-01-06T12:43:12;53.10;;;20.40;;
5678;SDS011;2862;52.560;13.566;2024-01-06T12:53:17;67.97;;;21.77;;
5678;SDS011;2862;52.560;13.566;2024-01-06T13:03:19;59.20;;;21.50;;
5678;SDS011;2862;52.560;13.566;2024-01-06T13:13:23;51.00;;;18.37;;
5678;SDS011;2862;52.560;13.566;2024-01-06T13:23:26;63.90;;;21.33;;
5678;SDS011;2862;52.560;13.566;2024-01-06T13:33:30;44.00;;;17.70;;
5678;SDS011;2862;52.560;13.566;2024-01-06T13:43:33;44.33;;;17.73;;
5678;SDS011;2862;52.560;13.566;2024-01-06T13:53:37;45.00;;;17.27;;
5678;SDS011;2862;52.560;13.566;2024-01-06T14:03:40;43.33;;;16.80;;
5678;SDS011;2862;52.560;13.566;2024-01-06T14:13:44;44.07;;;16.70;;
5678;SDS011;2862;52.560;13.566;2024-01-06T14:23:49;44.50;;;15.30;;
5678;SDS011;2862;52.560;13.566;2024-01-06T14:33:54;44.10;;;14.83;;
5678;SDS011;2862;52.560;13.566;2024-01-06T14:43:58;36.27;;;13.87;;
5678;SDS011;2862;52.560;13.566;2024-01-06T14:54:03;34.00;;;10.83;;
5678;SDS011;2862;52.560;13.566;2024-01-06T15:04:06;28.47;;;9.50;;
5678;SDS011;2862;52.560;13.566;2024-01-06T15:14:10;31.77;;;9.73;;
5678;SDS011;2862;52.560;13.566;2024-01-06T15:24:14;27.20;;;8.23;;
5678;SDS011;2862;52.560;13.566;2024-01-06T15:34:19;24.10;;;6.03;;
5678;SDS011;2862;52.560;13.566;2024-01-06T15:44:24;28.33;;;7.20;;
5678;SDS011;2862;52.560;13.566;2024-01-06T15:54:28;23.53;;;6.00;;
5678;SDS011;2862;52.560;13.566;2024-01-06T16:04:32;26.03;;;7.00;;
5678;SDS011;2862;52.560;13.566;2024-01-06T16:14:38;20.47;;;4.70;;
5678;SDS011;2862;52.560;13.566;2024-01-06T16:24:44;21.93;;;4.50;;
5678;SDS011;2862;52.560;13.566;2024-01-06T16:34:48;17.60;;;4.37;;
5678;SDS011;2862;52.560;13.566;2024-01-06T16:44:51;24.00;;;5.50;;
5678;SDS011;2862;52.560;13.566;2024-01-06T16:54:56;18.30;;;4.77;;
5678;SDS011;2862;52.560;13.566;2024-01-06T17:05:00;17.30;;;4.50;;
5678;SDS011;2862;52.560;13.566;2024-01-06T17:15:05;27.87;;;4.40;;
5678;SDS011;2862;52.560;13.566;2024-01-06T17:25:09;22.57;;;4.97;;
5678;SDS011;2862;52.560;13.566;2024-01-06T17:35:17;20.63;;;5.03;;
5678;SDS011;2862;52.560;13.566;2024-01-06T17:45:20;20.10;;;5.00;;
5678;SDS011;2862;52.560;13.566;2024-01-06T17:55:24;19.77;;;4.50;;
5678;SDS011;2862;52.560;13.566;2024-01-06T18:05:27;20.90;;;4.93;;
5678;SDS011;2862;52.560;13.566;2024-01-06T18:15:32;18.47;;;4.77;;
5678;SDS011;2862;52.560;13.566;2024-01-06T18:25:35;24.23;;;5.30;;
5678;SDS011;2862;52.560;13.566;2024-01-06T18:35:39;20.27;;;5.50;;
5678;SDS011;2862;52.560;13.566;2024-01-06T18:45:41;20.20;;;4.93;;
5678;SDS011;2862;52.560;13.566;2024-01-06T18:55:46;21.40;;;4.10;;
5678;SDS011;2862;52.560;13.566;2024-01-06T19:05:49;20.37;;;4.60;;
5678;SDS011;2862;52.560;13.566;2024-01-06T19:15:53;22.50;;;3.37;;
5678;SDS011;2862;52.560;13.566;2024-01-06T19:25:57;17.90;;;3.33;;
5678;SDS011;2862;52.560;13.566;2024-01-06T19:36:01;15.10;;;2.33;;
5678;SDS011;2862;52.560;13.566;2024-01-06T19:46:06;15.97;;;2.37;;
5678;SDS011;2862;52.560;13.566;2024-01-06T19:56:12;15.03;;;2.43;;
5678;SDS011;2862;52.560;13.566;2024-01-06T20:06:16;19.87;;;2.93;;
5678;SDS011;2862;52.560;13.566;2024-01-06T20:16:20;14.87;;;2.03;;
5678;SDS011;2862;52.560;13.566;2024-01-06T20:26:24;15.83;;;1.93;;
5678;SDS011;2862;52.560;13.566;2024-01-06T20:36:31;15.43;;;2.30;;
5678;SDS011;2862;52.560;13.566;2024-01-06T20:46:34;17.37;;;2.90;;
5678;SDS011;2862;52.560;13.566;2024-01-06T20:56:38;13.90;;;2.37;;
5678;SDS011;2862;52.560;13.566;2024-01-06T21:06:41;14.07;;;1.23;;
5678;SDS011;2862;52.560;13.566;2024-01-06T21:16:45;13.30;;;1.60;;
5678;SDS011;2862;52.560;13.566;2024-01-06T21:26:48;16.10;;;1.60;;
5678;SDS011;2862;52.560;13.566;2024-01-06T21:36:52;18.80;;;3.30;;
5678;SDS011;2862;52.560;13.566;2024-01-06T21:46:55;13.20;;;1.80;;
5678;SDS011;2862;52.560;13.566;2024-01-06T21:57:00;13.20;;;1.33;;
5678;SDS011;2862;52.560;13.566;2024-01-06T22:07:04;12.90;;;1.60;;
5678;SDS011;2862;52.560;13.566;2024-01-06T22:17:08;12.47;;;1.60;;
5678;SDS011;2862;52.560;13.566;2024-01-06T22:27:14;17.20;;;1.63;;
5678;SDS011;2862;52.560;13.566;2024-01-06T22:37:18;11.83;;;0.87;;
5678;SDS011;2862;52.560;13.566;2024-01-06T22:47:21;14.20;;;0.80;;
5678;SDS011;2862;52.560;13.566;2024-01-06T22:57:25;13.30;;;0.80;;
5678;SDS011;2862;52.560;13.566;2024-01-06T23:07:30;12.50;;;0.93;;
5678;SDS011;2862;52.560;13.566;2024-01-06T23:17:34;13.40;;;0.63;;
5678;SDS011;2862;52.560;13.566;2024-01-06T23:27:37;13.50;;;0.50;;
5678;SDS011;2862;52.560;13.566;2024-01-06T23:37:42;14.10;;;1.00;;
5678;SDS011;2862;52.560;13.566;2024-01-06T23:47:48;15.67;;;1.10;;
5678;SDS011;2862;52.560;13.566;2024-01-06T23:57:53;17.73;;;1.20;;
